ADDS METAR Data INFO
IDs: Format: Raw Decoded Include TAF

Data at: 2342 UTC 15 Dec 2017

KACV 152253Z AUTO 36007KT 6SM HZ FEW012 SCT120 12/09 A3021 RMK AO2 SLP236 T01220089
KACV 152153Z AUTO 00000KT 8SM FEW060 13/09 A3020 RMK AO2 SLP233 T01280089
KACV 152113Z AUTO 08004KT 7SM FEW016 BKN060 13/09 A3020 RMK AO2 T01280089
KACV 152106Z AUTO 04004KT 6SM HZ BKN016 BKN060 13/09 A3021 RMK AO2 T01330089
KACV 152053Z AUTO VRB04KT 6SM HZ SCT012 13/09 A3021 RMK AO2 SLP236 T01280089 58007
KACV 152018Z AUTO 31004KT 4SM BR SCT005 OVC010 12/10 A3023 RMK AO2 T01170100
KACV 152010Z AUTO 31006KT 4SM BR BKN005 OVC012 12/10 A3023 RMK AO2 CIG 004V009 T01170100
KACV 152002Z AUTO 33003KT 2 1/2SM BR OVC005 11/10 A3023 RMK AO2 CIG 004V009 T01110100
KACV 151953Z AUTO 34005KT 3SM BR OVC005 11/09 A3024 RMK AO2 SLP247 T01110094
KACV 151925Z AUTO 00000KT 4SM BR OVC005 11/10 A3023 RMK AO2 T01110100
KACV 151853Z AUTO 25003KT 6SM BR OVC004 11/10 A3024 RMK AO2 CIG 002V007 SLP246 T01110100
KACV 151831Z AUTO 27003KT 3SM BR OVC002 11/09 A3024 RMK AO2 T01060094
KACV 151822Z AUTO 00000KT 1 1/2SM BR OVC002 11/10 A3023 RMK AO2 T01060100
KACV 151815Z AUTO 00000KT 3/4SM R32/P6000FT BR OVC002 11/09 A3023 RMK AO2 T01060094
KACV 151801Z AUTO 00000KT 1/4SM R32/1800V2600FT FG OVC002 10/09 A3022 RMK AO2 T01000094
KACV 151753Z AUTO 00000KT 1/2SM R32/2000V3000FT FG OVC002 10/09 A3023 RMK AO2 SLP243 T01000089 10100 20056 50007
KACV 151751Z AUTO 00000KT 1/2SM R32/2000V4000FT FG OVC002 10/09 A3023 RMK AO2
KACV 151741Z AUTO 00000KT 1SM R32/3500VP6000FT BR OVC003 09/08 A3023 RMK AO2 T00890083
KACV 151727Z AUTO 10003KT 2SM R32/4500VP6000FT BR OVC003 08/07 A3022 RMK AO2 T00830072
KACV 151653Z AUTO 09004KT 1/2SM R32/2800V4000FT FG VV003 08/07 A3023 RMK AO2 SLP244 T00780067
KACV 151632Z AUTO 00000KT 1/4SM R32/2000V2800FT FG VV002 07/06 A3023 RMK AO2 T00720061
KACV 151621Z AUTO 00000KT 3/4SM R32/1800V5000FT BR VV002 07/06 A3022 RMK AO2 T00720061
KACV 151617Z AUTO 00000KT 2SM R32/2400VP6000FT BR OVC002 07/06 A3022 RMK AO2 T00720061
KACV 151553Z AUTO 00000KT 3SM BR BKN003 06/05 A3021 RMK AO2 SLP237 T00610050
KACV 151524Z AUTO 00000KT 3SM BR BKN003 06/05 A3022 RMK AO2 T00560050
KACV 151517Z AUTO 00000KT 2SM BR SCT003 06/05 A3022 RMK AO2 T00610050
KACV 151507Z AUTO 00000KT 3SM BR SCT003 06/05 A3022 RMK AO2 T00610050
KACV 151503Z AUTO 09003KT 1 1/2SM R32/2400VP6000FT BR SCT003 06/04 A3022 RMK AO2 T00610044
KACV 151453Z AUTO 00000KT 1/2SM R32/2800VP6000FT FG VV002 06/05 A3022 RMK AO2 SLP238 T00560050 53003
KACV 151449Z AUTO 00000KT 3/4SM R32/3500VP6000FT BR VV005 06/06 A3021 RMK AO2
KACV 151447Z AUTO 00000KT 1 1/2SM BR FEW007 07/06 A3022 RMK AO2
KACV 151434Z AUTO 12003KT 6SM BR SCT003 07/06 A3020 RMK AO2 T00720061
KACV 151430Z AUTO 00000KT 2SM R32/5500VP6000FT BR BKN003 08/06 A3021 RMK AO2 T00780061
KACV 151425Z AUTO 00000KT 3/4SM R32/3000VP6000FT BR VV003 08/07 A3021 RMK AO2 T00780072
KACV 151418Z AUTO 15003KT 1/4SM R32/1800V4000FT FG VV002 08/07 A3021 RMK AO2 T00780067
KACV 151400Z AUTO 09006KT 1/4SM R32/1600V2000FT FG VV001 07/06 A3022 RMK AO2 T00720061
KACV 151353Z AUTO 09006KT 1/2SM R32/1400V1600FT FG VV002 07/06 A3022 RMK AO2 SLP239 T00670056
KACV 151342Z AUTO 08004KT 1/4SM R32/1200V1600FT FG VV002 07/06 A3022 RMK AO2 T00720061
KACV 151322Z AUTO 00000KT 1/4SM R32/1400V2200FT FG VV001 07/06 A3022 RMK AO2 T00670056
KACV 151318Z AUTO 00000KT 3/4SM R32/1600VP6000FT BR VV001 06/06 A3021 RMK AO2 T00610056
KACV 151316Z AUTO 00000KT 1 1/2SM R32/1800VP6000FT BR BKN002 06/06 A3021 RMK AO2 T00610056
KACV 151253Z AUTO 09004KT 7SM SCT001 07/06 A3020 RMK AO2 SLP232 T00670056
KACV 151240Z AUTO 00000KT 3SM BR BKN001 07/06 A3021 RMK AO2 T00670056
KACV 151236Z AUTO 10003KT 1 1/2SM R32/4000VP6000FT BR OVC001 07/06 A3021 RMK AO2 T00670056
KACV 151219Z AUTO 08003KT 1 1/4SM R32/1800VP6000FT BR OVC003 07/06 A3022 RMK AO2 T00670056
KACV 151207Z AUTO 09004KT 2SM R32/5500VP6000FT BR BKN004 06/05 A3021 RMK AO2 T00560050
KACV 151153Z AUTO 00000KT 3SM R32/1800V3500FT BR OVC002 06/05 A3021 RMK AO2 SLP236 T00610050 10083 20050 53004
KACV 151151Z AUTO 00000KT 2SM R32/1800V3500FT BR OVC002 06/05 A3020 RMK AO2
KACV 151144Z AUTO 10005KT 1/2SM R32/1400V3500FT FG VV002 06/05 A3021 RMK AO2 T00560050
KACV 151132Z AUTO 00000KT 1/4SM R32/1200V2200FT FG VV002 06/05 A3021 RMK AO2 T00560050
KACV 151126Z AUTO 00000KT 1 3/4SM R32/1200V2000FT BR OVC003 06/05 A3021 RMK AO2 VIS 1/2V5 T00610050
KACV 151123Z AUTO 00000KT 4SM R32/1200V1800FT BR BKN003 06/05 A3020 RMK AO2 T00610050
KACV 151110Z AUTO 14003KT 4SM R32/1400VP6000FT BR BKN003 07/06 A3019 RMK AO2 T00670056
KACV 151107Z AUTO 15004KT 4SM R32/2600VP6000FT BR SCT005 07/06 A3019 RMK AO2 T00670056
KACV 151053Z AUTO 00000KT 4SM BR CLR 07/05 A3020 RMK AO2 SLP233 T00670050
KACV 151021Z AUTO 09006KT 4SM BR SCT003 08/07 A3020 RMK AO2 T00830072
KACV 151017Z AUTO 09006KT 2 1/2SM BR BKN003 08/07 A3020 RMK AO2 T00830072
KACV 150959Z AUTO 11005KT 1 3/4SM BR OVC002 08/07 A3020 RMK AO2 T00780067
KACV 150953Z AUTO 12005KT 3SM BR OVC002 07/06 A3020 RMK AO2 SLP232 T00720061
KACV 150937Z AUTO 11003KT 4SM BR OVC004 07/06 A3020 RMK AO2 T00720061
KACV 150921Z AUTO 09004KT 4SM BR BKN005 06/05 A3020 RMK AO2 T00610050
KACV 150911Z AUTO 00000KT 2SM BR BKN005 06/04 A3020 RMK AO2 T00610044
KACV 150859Z AUTO 00000KT 1 1/2SM BR FEW005 05/04 A3020 RMK AO2 VIS 1/2V3 T00500039
KACV 150853Z AUTO 00000KT 2 1/2SM BR CLR 06/04 A3020 RMK AO2 VIS 1 1/2V4 SLP232 T00560044 53000
KACV 150808Z AUTO 06003KT 3SM BR CLR 06/05 A3020 RMK AO2 T00610050
KACV 150753Z AUTO 08004KT 2 1/2SM BR CLR 06/05 A3019 RMK AO2 SLP228 T00610050 401560039
KACV 150746Z AUTO 05003KT 1 3/4SM BR CLR 06/04 A3019 RMK AO2 T00610044
KACV 150725Z AUTO 00000KT 2 1/2SM BR CLR 07/06 A3019 RMK AO2 T00670056
KACV 150707Z AUTO 10003KT 3SM BR CLR 07/06 A3019 RMK AO2 T00670061
KACV 150700Z AUTO 09005KT 2 1/2SM BR CLR 07/06 A3019 RMK AO2 T00720056
KACV 150653Z AUTO 09005KT 1 3/4SM BR CLR 07/06 A3019 RMK AO2 SLP229 T00670056
KACV 150628Z AUTO 10004KT 2 1/2SM BR CLR 07/06 A3019 RMK AO2 T00720056
KACV 150619Z AUTO 09003KT 1 3/4SM BR CLR 07/06 A3020 RMK AO2 T00720056
KACV 150601Z AUTO 00000KT 2SM BR CLR 07/06 A3020 RMK AO2 T00720061
KACV 150553Z AUTO 00000KT 1 3/4SM BR CLR 07/06 A3019 RMK AO2 SLP231 T00670056 10122 20067 53009
KACV 150538Z AUTO 05003KT 3SM BR CLR 07/06 A3019 RMK AO2 T00720061
KACV 150528Z AUTO 00000KT 2 1/2SM BR CLR 08/06 A3019 RMK AO2 T00780061
KACV 150507Z AUTO 11004KT 4SM BR CLR 08/06 A3019 RMK AO2 T00780061
KACV 150453Z AUTO 00000KT 2SM BR CLR 07/06 A3019 RMK AO2 SLP229 T00720061
KACV 150353Z AUTO 11005KT 4SM BR FEW015 08/07 A3017 RMK AO2 SLP225 T00830072
KACV 150341Z AUTO 10005KT 4SM BR FEW015 08/07 A3018 RMK AO2 T00830072
KACV 150309Z AUTO 09004KT 3SM BR OVC012 08/07 A3018 RMK AO2 T00830067
KACV 150301Z AUTO 07003KT 2 1/2SM BR OVC012 08/07 A3017 RMK AO2 T00830067
KACV 150253Z AUTO 03003KT 3SM BR OVC012 09/08 A3017 RMK AO2 SLP223 T00940078 53009
KACV 150236Z AUTO 36003KT 2 1/2SM BR BKN011 09/07 A3015 RMK AO2 T00890072
KACV 150153Z AUTO 00000KT 6SM BR CLR 10/08 A3014 RMK AO2 SLP212 T01000083
KACV 150053Z AUTO 00000KT 7SM CLR 12/08 A3014 RMK AO2 SLP212 T01220083
KACV 142353Z AUTO 16004KT 7SM CLR 14/09 A3012 RMK AO2 SLP206 T01390094 10156 20128 56002
KACV 142321Z AUTO 00000KT 4SM HZ FEW003 14/10 A3012 RMK AO2 T01390100
KACV 142253Z AUTO 33008KT 5SM HZ CLR 13/09 A3013 RMK AO2 SLP208 T01330094
KACV 142203Z AUTO 28008KT 3SM HZ SCT006 15/09 A3011 RMK AO2 T01500094
KACV 142153Z AUTO 25004KT 5SM HZ CLR 16/09 A3010 RMK AO2 SLP198 T01560094
KACV 142053Z AUTO 30005KT 4SM HZ FEW009 13/09 A3013 RMK AO2 SLP208 T01330094 58011
KACV 142029Z AUTO 32004KT 5SM HZ SCT006 14/09 A3013 RMK AO2 T01390094
KACV 142012Z AUTO 29006KT 4SM HZ OVC006 14/09 A3014 RMK AO2 T01390094
KACV 141953Z AUTO 29004KT 2 1/2SM HZ BKN006 14/10 A3014 RMK AO2 SLP213 T01440100
KACV 141902Z AUTO 00000KT 3SM HZ SCT006 13/10 A3016 RMK AO2 T01280100
KACV 141857Z AUTO 30003KT 2 1/2SM HZ BKN006 13/10 A3016 RMK AO2 T01280100
KACV 141848Z AUTO 28003KT 2 1/2SM HZ SCT006 13/10 A3016 RMK AO2 SLP221 T01280100
KACV 141847Z AUTO 00000KT 2 1/2SM HZ SCT006 13/10 A3016 RMK AO2
KACV 141753Z AUTO 00000KT 4SM HZ CLR 12/09 A3016 RMK AO2 SLP219 T01220094 10122 20039 51014
KACV 141723Z AUTO 00000KT 4SM BR CLR 10/08 A3015 RMK AO2 T01000083
KACV 141715Z AUTO 00000KT 2 1/2SM BR CLR 09/08 A3015 RMK AO2 T00940078
KACV 141653Z AUTO 00000KT 4SM BR CLR 07/06 A3015 RMK AO2 SLP216 T00720056
KACV 141642Z AUTO 00000KT 2 1/2SM BR CLR 07/06 A3014 RMK AO2 T00720061
KACV 141553Z AUTO 12004KT 3SM BR CLR 05/04 A3014 RMK AO2 SLP213 T00500039
KACV 141537Z AUTO 00000KT 2SM BR CLR 04/03 A3014 RMK AO2 T00440033
KACV 141453Z AUTO 09003KT 5SM BR CLR 05/04 A3012 RMK AO2 SLP206 T00500039 56004
KACV 141353Z AUTO 07003KT 5SM BR CLR 05/03 A3012 RMK AO2 SLP207 T00500033
KACV 141253Z AUTO 00000KT 5SM BR CLR 05/04 A3012 RMK AO2 SLP207 T00500039
KACV 141153Z AUTO 08005KT 8SM CLR 06/04 A3013 RMK AO2 SLP209 T00560039 10067 20039 53003